<?xml version="1.0" encoding="UTF-8" standalone="no" ?>
<gpx xmlns="http://www.topografix.com/GPX/1/1" creator="CompeGPS" version="1.1" xmlns:xsi="http://www.w3.org/2001/XMLSchema-instance" xsi:schemaLocation="http://www.topografix.com/GPX/1/1 http://www.topografix.com/GPX/1/1/gpx.xsd">
  <metadata>
    <link href="http://www.compegps.com">
      <text>CompeGPS TEAM, SL</text>
    </link>
    <time>2022-02-20T15:38:03Z</time>
    <bounds maxlat="36.888362" maxlon="-3.701939" minlat="36.867505" minlon="-3.724885"/>
  </metadata>
  <trk>
    <name>Cañuelo-CerroBojes</name>
    <trkseg>
      <trkpt lat="36.881342" lon="-3.722406">
        <ele>1276.3</ele>
        <time>2022-02-20T07:43:33Z</time>
      </trkpt>
      <trkpt lat="36.881204" lon="-3.722517">
        <ele>1278.2</ele>
        <time>2022-02-20T07:45:03Z</time>
      </trkpt>
      <trkpt lat="36.880898" lon="-3.722785">
        <ele>1281.6</ele>
        <time>2022-02-20T07:45:51Z</time>
      </trkpt>
      <trkpt lat="36.880639" lon="-3.722885">
        <ele>1283.5</ele>
        <time>2022-02-20T07:46:20Z</time>
      </trkpt>
      <trkpt lat="36.880364" lon="-3.722990">
        <ele>1284.0</ele>
        <time>2022-02-20T07:46:48Z</time>
      </trkpt>
      <trkpt lat="36.880096" lon="-3.722888">
        <ele>1287.8</ele>
        <time>2022-02-20T07:47:11Z</time>
      </trkpt>
      <trkpt lat="36.879862" lon="-3.722932">
        <ele>1292.6</ele>
        <time>2022-02-20T07:47:49Z</time>
      </trkpt>
      <trkpt lat="36.879587" lon="-3.722975">
        <ele>1297.9</ele>
        <time>2022-02-20T07:48:22Z</time>
      </trkpt>
      <trkpt lat="36.879345" lon="-3.722609">
        <ele>1303.7</ele>
        <time>2022-02-20T07:49:09Z</time>
      </trkpt>
      <trkpt lat="36.879143" lon="-3.722186">
        <ele>1310.9</ele>
        <time>2022-02-20T07:49:54Z</time>
      </trkpt>
      <trkpt lat="36.878733" lon="-3.722334">
        <ele>1318.6</ele>
        <time>2022-02-20T07:50:40Z</time>
      </trkpt>
      <trkpt lat="36.878562" lon="-3.722609">
        <ele>1322.4</ele>
        <time>2022-02-20T07:51:07Z</time>
      </trkpt>
      <trkpt lat="36.878345" lon="-3.722744">
        <ele>1324.4</ele>
        <time>2022-02-20T07:51:30Z</time>
      </trkpt>
      <trkpt lat="36.878112" lon="-3.722808">
        <ele>1324.8</ele>
        <time>2022-02-20T07:51:53Z</time>
      </trkpt>
      <trkpt lat="36.877855" lon="-3.722881">
        <ele>1326.3</ele>
        <time>2022-02-20T07:52:17Z</time>
      </trkpt>
      <trkpt lat="36.877611" lon="-3.722896">
        <ele>1326.8</ele>
        <time>2022-02-20T07:52:37Z</time>
      </trkpt>
      <trkpt lat="36.877388" lon="-3.723073">
        <ele>1324.8</ele>
        <time>2022-02-20T07:53:02Z</time>
      </trkpt>
      <trkpt lat="36.877306" lon="-3.723346">
        <ele>1326.3</ele>
        <time>2022-02-20T07:53:21Z</time>
      </trkpt>
      <trkpt lat="36.877347" lon="-3.723762">
        <ele>1323.4</ele>
        <time>2022-02-20T07:53:58Z</time>
      </trkpt>
      <trkpt lat="36.877335" lon="-3.723764">
        <ele>1328.7</ele>
        <time>2022-02-20T07:55:51Z</time>
      </trkpt>
      <trkpt lat="36.877126" lon="-3.723874">
        <ele>1335.4</ele>
        <time>2022-02-20T07:56:37Z</time>
      </trkpt>
      <trkpt lat="36.876882" lon="-3.724113">
        <ele>1343.6</ele>
        <time>2022-02-20T07:57:39Z</time>
      </trkpt>
      <trkpt lat="36.876511" lon="-3.723999">
        <ele>1357.0</ele>
        <time>2022-02-20T07:59:03Z</time>
      </trkpt>
      <trkpt lat="36.876392" lon="-3.723876">
        <ele>1358.0</ele>
        <time>2022-02-20T08:00:34Z</time>
      </trkpt>
      <trkpt lat="36.876275" lon="-3.723893">
        <ele>1357.5</ele>
        <time>2022-02-20T08:01:33Z</time>
      </trkpt>
      <trkpt lat="36.876432" lon="-3.724151">
        <ele>1367.6</ele>
        <time>2022-02-20T08:02:55Z</time>
      </trkpt>
      <trkpt lat="36.876422" lon="-3.724487">
        <ele>1365.2</ele>
        <time>2022-02-20T08:04:04Z</time>
      </trkpt>
      <trkpt lat="36.876267" lon="-3.724786">
        <ele>1369.5</ele>
        <time>2022-02-20T08:05:34Z</time>
      </trkpt>
      <trkpt lat="36.876141" lon="-3.724619">
        <ele>1373.9</ele>
        <time>2022-02-20T08:05:55Z</time>
      </trkpt>
      <trkpt lat="36.875974" lon="-3.724492">
        <ele>1374.8</ele>
        <time>2022-02-20T08:06:18Z</time>
      </trkpt>
      <trkpt lat="36.875932" lon="-3.724604">
        <ele>1378.7</ele>
        <time>2022-02-20T08:06:43Z</time>
      </trkpt>
      <trkpt lat="36.876023" lon="-3.724856">
        <ele>1381.6</ele>
        <time>2022-02-20T08:07:23Z</time>
      </trkpt>
      <trkpt lat="36.876074" lon="-3.724885">
        <ele>1384.4</ele>
        <time>2022-02-20T08:08:47Z</time>
      </trkpt>
      <trkpt lat="36.875977" lon="-3.724624">
        <ele>1380.6</ele>
        <time>2022-02-20T08:09:12Z</time>
      </trkpt>
      <trkpt lat="36.875838" lon="-3.724495">
        <ele>1381.1</ele>
        <time>2022-02-20T08:09:27Z</time>
      </trkpt>
      <trkpt lat="36.875711" lon="-3.724395">
        <ele>1380.1</ele>
        <time>2022-02-20T08:09:49Z</time>
      </trkpt>
      <trkpt lat="36.875543" lon="-3.724391">
        <ele>1381.1</ele>
        <time>2022-02-20T08:10:29Z</time>
      </trkpt>
      <trkpt lat="36.875379" lon="-3.724457">
        <ele>1380.6</ele>
        <time>2022-02-20T08:10:50Z</time>
      </trkpt>
      <trkpt lat="36.875217" lon="-3.724577">
        <ele>1375.8</ele>
        <time>2022-02-20T08:11:09Z</time>
      </trkpt>
      <trkpt lat="36.875054" lon="-3.724696">
        <ele>1372.9</ele>
        <time>2022-02-20T08:11:26Z</time>
      </trkpt>
      <trkpt lat="36.874864" lon="-3.724684">
        <ele>1371.0</ele>
        <time>2022-02-20T08:11:43Z</time>
      </trkpt>
      <trkpt lat="36.874690" lon="-3.724677">
        <ele>1366.7</ele>
        <time>2022-02-20T08:12:03Z</time>
      </trkpt>
      <trkpt lat="36.874558" lon="-3.724682">
        <ele>1359.4</ele>
        <time>2022-02-20T08:12:25Z</time>
      </trkpt>
      <trkpt lat="36.874391" lon="-3.724677">
        <ele>1355.1</ele>
        <time>2022-02-20T08:12:42Z</time>
      </trkpt>
      <trkpt lat="36.874175" lon="-3.724645">
        <ele>1350.8</ele>
        <time>2022-02-20T08:13:01Z</time>
      </trkpt>
      <trkpt lat="36.873989" lon="-3.724613">
        <ele>1346.9</ele>
        <time>2022-02-20T08:13:15Z</time>
      </trkpt>
      <trkpt lat="36.873799" lon="-3.724607">
        <ele>1345.0</ele>
        <time>2022-02-20T08:13:30Z</time>
      </trkpt>
      <trkpt lat="36.873615" lon="-3.724611">
        <ele>1344.1</ele>
        <time>2022-02-20T08:13:45Z</time>
      </trkpt>
      <trkpt lat="36.873429" lon="-3.724593">
        <ele>1337.8</ele>
        <time>2022-02-20T08:14:14Z</time>
      </trkpt>
      <trkpt lat="36.873240" lon="-3.724539">
        <ele>1332.0</ele>
        <time>2022-02-20T08:14:43Z</time>
      </trkpt>
      <trkpt lat="36.873058" lon="-3.724568">
        <ele>1325.8</ele>
        <time>2022-02-20T08:15:09Z</time>
      </trkpt>
      <trkpt lat="36.872867" lon="-3.724555">
        <ele>1322.9</ele>
        <time>2022-02-20T08:15:25Z</time>
      </trkpt>
      <trkpt lat="36.872694" lon="-3.724560">
        <ele>1322.4</ele>
        <time>2022-02-20T08:15:45Z</time>
      </trkpt>
      <trkpt lat="36.872498" lon="-3.724587">
        <ele>1321.0</ele>
        <time>2022-02-20T08:16:02Z</time>
      </trkpt>
      <trkpt lat="36.872314" lon="-3.724563">
        <ele>1323.9</ele>
        <time>2022-02-20T08:16:21Z</time>
      </trkpt>
      <trkpt lat="36.872117" lon="-3.724571">
        <ele>1327.2</ele>
        <time>2022-02-20T08:16:45Z</time>
      </trkpt>
      <trkpt lat="36.871925" lon="-3.724519">
        <ele>1334.0</ele>
        <time>2022-02-20T08:17:10Z</time>
      </trkpt>
      <trkpt lat="36.871737" lon="-3.724470">
        <ele>1338.3</ele>
        <time>2022-02-20T08:17:35Z</time>
      </trkpt>
      <trkpt lat="36.871574" lon="-3.724439">
        <ele>1343.6</ele>
        <time>2022-02-20T08:18:13Z</time>
      </trkpt>
      <trkpt lat="36.871522" lon="-3.724226">
        <ele>1345.0</ele>
        <time>2022-02-20T08:18:38Z</time>
      </trkpt>
      <trkpt lat="36.871493" lon="-3.724073">
        <ele>1347.4</ele>
        <time>2022-02-20T08:19:10Z</time>
      </trkpt>
      <trkpt lat="36.871392" lon="-3.723990">
        <ele>1348.9</ele>
        <time>2022-02-20T08:19:31Z</time>
      </trkpt>
      <trkpt lat="36.871213" lon="-3.724039">
        <ele>1353.2</ele>
        <time>2022-02-20T08:19:52Z</time>
      </trkpt>
      <trkpt lat="36.871061" lon="-3.724133">
        <ele>1358.0</ele>
        <time>2022-02-20T08:20:22Z</time>
      </trkpt>
      <trkpt lat="36.871081" lon="-3.724095">
        <ele>1358.0</ele>
        <time>2022-02-20T08:21:23Z</time>
      </trkpt>
      <trkpt lat="36.871251" lon="-3.724055">
        <ele>1353.7</ele>
        <time>2022-02-20T08:21:54Z</time>
      </trkpt>
      <trkpt lat="36.871414" lon="-3.723964">
        <ele>1350.8</ele>
        <time>2022-02-20T08:22:16Z</time>
      </trkpt>
      <trkpt lat="36.871540" lon="-3.723816">
        <ele>1348.4</ele>
        <time>2022-02-20T08:22:48Z</time>
      </trkpt>
      <trkpt lat="36.871630" lon="-3.723601">
        <ele>1345.5</ele>
        <time>2022-02-20T08:23:06Z</time>
      </trkpt>
      <trkpt lat="36.871718" lon="-3.723396">
        <ele>1341.7</ele>
        <time>2022-02-20T08:23:24Z</time>
      </trkpt>
      <trkpt lat="36.871784" lon="-3.723194">
        <ele>1337.8</ele>
        <time>2022-02-20T08:23:55Z</time>
      </trkpt>
      <trkpt lat="36.871786" lon="-3.723003">
        <ele>1333.5</ele>
        <time>2022-02-20T08:24:25Z</time>
      </trkpt>
      <trkpt lat="36.871614" lon="-3.722960">
        <ele>1327.7</ele>
        <time>2022-02-20T08:24:48Z</time>
      </trkpt>
      <trkpt lat="36.871449" lon="-3.722879">
        <ele>1320.5</ele>
        <time>2022-02-20T08:25:10Z</time>
      </trkpt>
      <trkpt lat="36.871304" lon="-3.722840">
        <ele>1314.3</ele>
        <time>2022-02-20T08:25:39Z</time>
      </trkpt>
      <trkpt lat="36.871172" lon="-3.722677">
        <ele>1308.0</ele>
        <time>2022-02-20T08:26:19Z</time>
      </trkpt>
      <trkpt lat="36.871082" lon="-3.722493">
        <ele>1301.8</ele>
        <time>2022-02-20T08:26:37Z</time>
      </trkpt>
      <trkpt lat="36.870989" lon="-3.722361">
        <ele>1302.2</ele>
        <time>2022-02-20T08:27:22Z</time>
      </trkpt>
      <trkpt lat="36.870814" lon="-3.722315">
        <ele>1299.4</ele>
        <time>2022-02-20T08:27:44Z</time>
      </trkpt>
      <trkpt lat="36.870635" lon="-3.722241">
        <ele>1296.5</ele>
        <time>2022-02-20T08:28:04Z</time>
      </trkpt>
      <trkpt lat="36.870478" lon="-3.722141">
        <ele>1295.0</ele>
        <time>2022-02-20T08:28:24Z</time>
      </trkpt>
      <trkpt lat="36.870368" lon="-3.721990">
        <ele>1297.9</ele>
        <time>2022-02-20T08:28:58Z</time>
      </trkpt>
      <trkpt lat="36.870254" lon="-3.721812">
        <ele>1302.2</ele>
        <time>2022-02-20T08:29:25Z</time>
      </trkpt>
      <trkpt lat="36.870144" lon="-3.721662">
        <ele>1300.3</ele>
        <time>2022-02-20T08:32:28Z</time>
      </trkpt>
      <trkpt lat="36.869984" lon="-3.721570">
        <ele>1301.3</ele>
        <time>2022-02-20T08:32:50Z</time>
      </trkpt>
      <trkpt lat="36.869826" lon="-3.721471">
        <ele>1307.5</ele>
        <time>2022-02-20T08:33:18Z</time>
      </trkpt>
      <trkpt lat="36.869659" lon="-3.721386">
        <ele>1308.0</ele>
        <time>2022-02-20T08:33:39Z</time>
      </trkpt>
      <trkpt lat="36.869490" lon="-3.721308">
        <ele>1310.4</ele>
        <time>2022-02-20T08:34:01Z</time>
      </trkpt>
      <trkpt lat="36.869443" lon="-3.721083">
        <ele>1309.5</ele>
        <time>2022-02-20T08:34:29Z</time>
      </trkpt>
      <trkpt lat="36.869431" lon="-3.720843">
        <ele>1306.6</ele>
        <time>2022-02-20T08:34:47Z</time>
      </trkpt>
      <trkpt lat="36.869475" lon="-3.720622">
        <ele>1309.0</ele>
        <time>2022-02-20T08:35:09Z</time>
      </trkpt>
      <trkpt lat="36.869463" lon="-3.720402">
        <ele>1317.6</ele>
        <time>2022-02-20T08:35:41Z</time>
      </trkpt>
      <trkpt lat="36.869442" lon="-3.720199">
        <ele>1325.8</ele>
        <time>2022-02-20T08:36:15Z</time>
      </trkpt>
      <trkpt lat="36.869434" lon="-3.719983">
        <ele>1332.5</ele>
        <time>2022-02-20T08:36:50Z</time>
      </trkpt>
      <trkpt lat="36.869338" lon="-3.719936">
        <ele>1336.9</ele>
        <time>2022-02-20T08:39:37Z</time>
      </trkpt>
      <trkpt lat="36.869196" lon="-3.719800">
        <ele>1333.0</ele>
        <time>2022-02-20T08:40:05Z</time>
      </trkpt>
      <trkpt lat="36.869042" lon="-3.719685">
        <ele>1333.0</ele>
        <time>2022-02-20T08:40:36Z</time>
      </trkpt>
      <trkpt lat="36.868906" lon="-3.719567">
        <ele>1329.2</ele>
        <time>2022-02-20T08:41:49Z</time>
      </trkpt>
      <trkpt lat="36.868797" lon="-3.719576">
        <ele>1331.6</ele>
        <time>2022-02-20T08:42:43Z</time>
      </trkpt>
      <trkpt lat="36.868920" lon="-3.719430">
        <ele>1324.4</ele>
        <time>2022-02-20T08:43:08Z</time>
      </trkpt>
      <trkpt lat="36.868853" lon="-3.719221">
        <ele>1314.7</ele>
        <time>2022-02-20T08:43:33Z</time>
      </trkpt>
      <trkpt lat="36.868829" lon="-3.718998">
        <ele>1308.0</ele>
        <time>2022-02-20T08:43:45Z</time>
      </trkpt>
      <trkpt lat="36.868845" lon="-3.718815">
        <ele>1305.1</ele>
        <time>2022-02-20T08:44:22Z</time>
      </trkpt>
      <trkpt lat="36.868912" lon="-3.718585">
        <ele>1302.2</ele>
        <time>2022-02-20T08:44:34Z</time>
      </trkpt>
      <trkpt lat="36.868943" lon="-3.718356">
        <ele>1306.1</ele>
        <time>2022-02-20T08:45:00Z</time>
      </trkpt>
      <trkpt lat="36.869015" lon="-3.718142">
        <ele>1308.5</ele>
        <time>2022-02-20T08:45:18Z</time>
      </trkpt>
      <trkpt lat="36.869034" lon="-3.717932">
        <ele>1312.3</ele>
        <time>2022-02-20T08:45:39Z</time>
      </trkpt>
      <trkpt lat="36.868952" lon="-3.717719">
        <ele>1311.4</ele>
        <time>2022-02-20T08:45:55Z</time>
      </trkpt>
      <trkpt lat="36.868884" lon="-3.717500">
        <ele>1309.9</ele>
        <time>2022-02-20T08:46:15Z</time>
      </trkpt>
      <trkpt lat="36.868876" lon="-3.717273">
        <ele>1307.0</ele>
        <time>2022-02-20T08:46:36Z</time>
      </trkpt>
      <trkpt lat="36.868860" lon="-3.717043">
        <ele>1306.6</ele>
        <time>2022-02-20T08:46:55Z</time>
      </trkpt>
      <trkpt lat="36.868773" lon="-3.716850">
        <ele>1302.2</ele>
        <time>2022-02-20T08:47:24Z</time>
      </trkpt>
      <trkpt lat="36.868763" lon="-3.716798">
        <ele>1313.3</ele>
        <time>2022-02-20T08:48:54Z</time>
      </trkpt>
      <trkpt lat="36.868863" lon="-3.716944">
        <ele>1307.5</ele>
        <time>2022-02-20T08:49:53Z</time>
      </trkpt>
      <trkpt lat="36.868918" lon="-3.716884">
        <ele>1303.2</ele>
        <time>2022-02-20T08:50:30Z</time>
      </trkpt>
      <trkpt lat="36.868901" lon="-3.716647">
        <ele>1301.3</ele>
        <time>2022-02-20T08:50:47Z</time>
      </trkpt>
      <trkpt lat="36.868854" lon="-3.716416">
        <ele>1296.5</ele>
        <time>2022-02-20T08:51:03Z</time>
      </trkpt>
      <trkpt lat="36.868796" lon="-3.716198">
        <ele>1290.7</ele>
        <time>2022-02-20T08:51:21Z</time>
      </trkpt>
      <trkpt lat="36.868725" lon="-3.715988">
        <ele>1288.3</ele>
        <time>2022-02-20T08:51:40Z</time>
      </trkpt>
      <trkpt lat="36.868700" lon="-3.715768">
        <ele>1285.9</ele>
        <time>2022-02-20T08:51:57Z</time>
      </trkpt>
      <trkpt lat="36.868637" lon="-3.715550">
        <ele>1285.4</ele>
        <time>2022-02-20T08:52:13Z</time>
      </trkpt>
      <trkpt lat="36.868514" lon="-3.715395">
        <ele>1283.0</ele>
        <time>2022-02-20T08:52:30Z</time>
      </trkpt>
      <trkpt lat="36.868435" lon="-3.715193">
        <ele>1282.5</ele>
        <time>2022-02-20T08:52:46Z</time>
      </trkpt>
      <trkpt lat="36.868411" lon="-3.715025">
        <ele>1282.1</ele>
        <time>2022-02-20T08:53:34Z</time>
      </trkpt>
      <trkpt lat="36.868376" lon="-3.714824">
        <ele>1276.8</ele>
        <time>2022-02-20T08:54:10Z</time>
      </trkpt>
      <trkpt lat="36.868324" lon="-3.714588">
        <ele>1272.9</ele>
        <time>2022-02-20T08:54:32Z</time>
      </trkpt>
      <trkpt lat="36.868316" lon="-3.714357">
        <ele>1269.6</ele>
        <time>2022-02-20T08:54:50Z</time>
      </trkpt>
      <trkpt lat="36.868308" lon="-3.714128">
        <ele>1268.6</ele>
        <time>2022-02-20T08:55:08Z</time>
      </trkpt>
      <trkpt lat="36.868214" lon="-3.713943">
        <ele>1264.3</ele>
        <time>2022-02-20T08:55:45Z</time>
      </trkpt>
      <trkpt lat="36.868105" lon="-3.713768">
        <ele>1260.4</ele>
        <time>2022-02-20T08:56:06Z</time>
      </trkpt>
      <trkpt lat="36.868118" lon="-3.713547">
        <ele>1255.6</ele>
        <time>2022-02-20T08:56:25Z</time>
      </trkpt>
      <trkpt lat="36.868089" lon="-3.713317">
        <ele>1258.5</ele>
        <time>2022-02-20T08:56:45Z</time>
      </trkpt>
      <trkpt lat="36.868045" lon="-3.713099">
        <ele>1267.2</ele>
        <time>2022-02-20T08:57:11Z</time>
      </trkpt>
      <trkpt lat="36.867946" lon="-3.712893">
        <ele>1271.0</ele>
        <time>2022-02-20T08:57:42Z</time>
      </trkpt>
      <trkpt lat="36.867847" lon="-3.712706">
        <ele>1275.8</ele>
        <time>2022-02-20T08:58:04Z</time>
      </trkpt>
      <trkpt lat="36.867774" lon="-3.712506">
        <ele>1280.1</ele>
        <time>2022-02-20T08:58:27Z</time>
      </trkpt>
      <trkpt lat="36.867791" lon="-3.712338">
        <ele>1280.1</ele>
        <time>2022-02-20T09:00:00Z</time>
      </trkpt>
      <trkpt lat="36.867899" lon="-3.712165">
        <ele>1272.9</ele>
        <time>2022-02-20T09:00:20Z</time>
      </trkpt>
      <trkpt lat="36.868033" lon="-3.712015">
        <ele>1267.2</ele>
        <time>2022-02-20T09:00:44Z</time>
      </trkpt>
      <trkpt lat="36.868108" lon="-3.711818">
        <ele>1261.9</ele>
        <time>2022-02-20T09:01:01Z</time>
      </trkpt>
      <trkpt lat="36.868195" lon="-3.711606">
        <ele>1257.1</ele>
        <time>2022-02-20T09:01:17Z</time>
      </trkpt>
      <trkpt lat="36.868283" lon="-3.711411">
        <ele>1256.6</ele>
        <time>2022-02-20T09:01:32Z</time>
      </trkpt>
      <trkpt lat="36.868402" lon="-3.711243">
        <ele>1261.4</ele>
        <time>2022-02-20T09:01:50Z</time>
      </trkpt>
      <trkpt lat="36.868527" lon="-3.711080">
        <ele>1259.0</ele>
        <time>2022-02-20T09:02:07Z</time>
      </trkpt>
      <trkpt lat="36.868618" lon="-3.710891">
        <ele>1259.9</ele>
        <time>2022-02-20T09:02:25Z</time>
      </trkpt>
      <trkpt lat="36.868729" lon="-3.710716">
        <ele>1268.1</ele>
        <time>2022-02-20T09:02:54Z</time>
      </trkpt>
      <trkpt lat="36.868812" lon="-3.710512">
        <ele>1274.4</ele>
        <time>2022-02-20T09:03:25Z</time>
      </trkpt>
      <trkpt lat="36.868823" lon="-3.710279">
        <ele>1279.7</ele>
        <time>2022-02-20T09:03:52Z</time>
      </trkpt>
      <trkpt lat="36.868821" lon="-3.710036">
        <ele>1285.9</ele>
        <time>2022-02-20T09:04:21Z</time>
      </trkpt>
      <trkpt lat="36.868902" lon="-3.709847">
        <ele>1292.1</ele>
        <time>2022-02-20T09:04:58Z</time>
      </trkpt>
      <trkpt lat="36.868885" lon="-3.709629">
        <ele>1299.8</ele>
        <time>2022-02-20T09:05:30Z</time>
      </trkpt>
      <trkpt lat="36.868855" lon="-3.709416">
        <ele>1309.0</ele>
        <time>2022-02-20T09:06:02Z</time>
      </trkpt>
      <trkpt lat="36.868801" lon="-3.709196">
        <ele>1315.7</ele>
        <time>2022-02-20T09:06:33Z</time>
      </trkpt>
      <trkpt lat="36.868702" lon="-3.708996">
        <ele>1319.1</ele>
        <time>2022-02-20T09:06:55Z</time>
      </trkpt>
      <trkpt lat="36.868668" lon="-3.708786">
        <ele>1322.9</ele>
        <time>2022-02-20T09:07:49Z</time>
      </trkpt>
      <trkpt lat="36.868754" lon="-3.708592">
        <ele>1330.1</ele>
        <time>2022-02-20T09:08:21Z</time>
      </trkpt>
      <trkpt lat="36.868832" lon="-3.708374">
        <ele>1337.8</ele>
        <time>2022-02-20T09:08:57Z</time>
      </trkpt>
      <trkpt lat="36.868816" lon="-3.708139">
        <ele>1345.0</ele>
        <time>2022-02-20T09:09:32Z</time>
      </trkpt>
      <trkpt lat="36.868687" lon="-3.708015">
        <ele>1348.4</ele>
        <time>2022-02-20T09:10:24Z</time>
      </trkpt>
      <trkpt lat="36.868727" lon="-3.707901">
        <ele>1350.3</ele>
        <time>2022-02-20T09:13:10Z</time>
      </trkpt>
      <trkpt lat="36.868885" lon="-3.707913">
        <ele>1345.0</ele>
        <time>2022-02-20T09:13:44Z</time>
      </trkpt>
      <trkpt lat="36.869049" lon="-3.707862">
        <ele>1338.8</ele>
        <time>2022-02-20T09:14:15Z</time>
      </trkpt>
      <trkpt lat="36.869250" lon="-3.707847">
        <ele>1333.0</ele>
        <time>2022-02-20T09:14:44Z</time>
      </trkpt>
      <trkpt lat="36.869438" lon="-3.707849">
        <ele>1331.6</ele>
        <time>2022-02-20T09:15:03Z</time>
      </trkpt>
      <trkpt lat="36.869605" lon="-3.707787">
        <ele>1336.9</ele>
        <time>2022-02-20T09:15:21Z</time>
      </trkpt>
      <trkpt lat="36.869532" lon="-3.707791">
        <ele>1336.9</ele>
        <time>2022-02-20T09:16:40Z</time>
      </trkpt>
      <trkpt lat="36.869381" lon="-3.707819">
        <ele>1333.0</ele>
        <time>2022-02-20T09:17:40Z</time>
      </trkpt>
      <trkpt lat="36.869242" lon="-3.707815">
        <ele>1332.5</ele>
        <time>2022-02-20T09:18:13Z</time>
      </trkpt>
      <trkpt lat="36.869062" lon="-3.707833">
        <ele>1339.3</ele>
        <time>2022-02-20T09:18:59Z</time>
      </trkpt>
      <trkpt lat="36.868900" lon="-3.707834">
        <ele>1344.5</ele>
        <time>2022-02-20T09:19:32Z</time>
      </trkpt>
      <trkpt lat="36.868891" lon="-3.707599">
        <ele>1342.6</ele>
        <time>2022-02-20T09:19:52Z</time>
      </trkpt>
      <trkpt lat="36.868837" lon="-3.707388">
        <ele>1340.2</ele>
        <time>2022-02-20T09:20:14Z</time>
      </trkpt>
      <trkpt lat="36.868797" lon="-3.707186">
        <ele>1337.8</ele>
        <time>2022-02-20T09:20:44Z</time>
      </trkpt>
      <trkpt lat="36.868723" lon="-3.706979">
        <ele>1338.8</ele>
        <time>2022-02-20T09:21:02Z</time>
      </trkpt>
      <trkpt lat="36.868667" lon="-3.706758">
        <ele>1339.7</ele>
        <time>2022-02-20T09:21:22Z</time>
      </trkpt>
      <trkpt lat="36.868583" lon="-3.706562">
        <ele>1342.6</ele>
        <time>2022-02-20T09:21:47Z</time>
      </trkpt>
      <trkpt lat="36.868489" lon="-3.706368">
        <ele>1347.4</ele>
        <time>2022-02-20T09:22:18Z</time>
      </trkpt>
      <trkpt lat="36.868456" lon="-3.706135">
        <ele>1352.2</ele>
        <time>2022-02-20T09:22:40Z</time>
      </trkpt>
      <trkpt lat="36.868425" lon="-3.705913">
        <ele>1356.1</ele>
        <time>2022-02-20T09:23:14Z</time>
      </trkpt>
      <trkpt lat="36.868460" lon="-3.705703">
        <ele>1358.0</ele>
        <time>2022-02-20T09:23:39Z</time>
      </trkpt>
      <trkpt lat="36.868362" lon="-3.705644">
        <ele>1364.2</ele>
        <time>2022-02-20T09:24:35Z</time>
      </trkpt>
      <trkpt lat="36.868310" lon="-3.705449">
        <ele>1369.1</ele>
        <time>2022-02-20T09:25:13Z</time>
      </trkpt>
      <trkpt lat="36.868249" lon="-3.705245">
        <ele>1370.0</ele>
        <time>2022-02-20T09:25:33Z</time>
      </trkpt>
      <trkpt lat="36.868131" lon="-3.705172">
        <ele>1371.0</ele>
        <time>2022-02-20T09:26:00Z</time>
      </trkpt>
      <trkpt lat="36.868022" lon="-3.705082">
        <ele>1365.7</ele>
        <time>2022-02-20T09:26:43Z</time>
      </trkpt>
      <trkpt lat="36.867865" lon="-3.705184">
        <ele>1363.3</ele>
        <time>2022-02-20T09:27:15Z</time>
      </trkpt>
      <trkpt lat="36.867869" lon="-3.705399">
        <ele>1364.7</ele>
        <time>2022-02-20T09:27:43Z</time>
      </trkpt>
      <trkpt lat="36.867810" lon="-3.705417">
        <ele>1360.4</ele>
        <time>2022-02-20T09:28:35Z</time>
      </trkpt>
      <trkpt lat="36.867875" lon="-3.705559">
        <ele>1354.2</ele>
        <time>2022-02-20T09:29:19Z</time>
      </trkpt>
      <trkpt lat="36.867952" lon="-3.705723">
        <ele>1349.3</ele>
        <time>2022-02-20T09:29:59Z</time>
      </trkpt>
      <trkpt lat="36.868027" lon="-3.705882">
        <ele>1342.1</ele>
        <time>2022-02-20T09:31:40Z</time>
      </trkpt>
      <trkpt lat="36.868005" lon="-3.706033">
        <ele>1339.3</ele>
        <time>2022-02-20T09:34:02Z</time>
      </trkpt>
      <trkpt lat="36.867929" lon="-3.705868">
        <ele>1338.3</ele>
        <time>2022-02-20T09:34:43Z</time>
      </trkpt>
      <trkpt lat="36.867778" lon="-3.705755">
        <ele>1338.3</ele>
        <time>2022-02-20T09:35:13Z</time>
      </trkpt>
      <trkpt lat="36.867624" lon="-3.705621">
        <ele>1341.2</ele>
        <time>2022-02-20T09:36:23Z</time>
      </trkpt>
      <trkpt lat="36.867599" lon="-3.705473">
        <ele>1342.6</ele>
        <time>2022-02-20T09:37:24Z</time>
      </trkpt>
      <trkpt lat="36.867544" lon="-3.705348">
        <ele>1338.8</ele>
        <time>2022-02-20T09:38:43Z</time>
      </trkpt>
      <trkpt lat="36.867505" lon="-3.705199">
        <ele>1336.4</ele>
        <time>2022-02-20T09:39:45Z</time>
      </trkpt>
      <trkpt lat="36.867523" lon="-3.704987">
        <ele>1334.9</ele>
        <time>2022-02-20T09:40:25Z</time>
      </trkpt>
      <trkpt lat="36.867558" lon="-3.704830">
        <ele>1330.6</ele>
        <time>2022-02-20T09:42:01Z</time>
      </trkpt>
      <trkpt lat="36.867569" lon="-3.704698">
        <ele>1328.7</ele>
        <time>2022-02-20T09:45:10Z</time>
      </trkpt>
      <trkpt lat="36.867678" lon="-3.704552">
        <ele>1327.7</ele>
        <time>2022-02-20T09:45:49Z</time>
      </trkpt>
      <trkpt lat="36.867776" lon="-3.704385">
        <ele>1326.8</ele>
        <time>2022-02-20T09:46:42Z</time>
      </trkpt>
      <trkpt lat="36.867883" lon="-3.704208">
        <ele>1324.4</ele>
        <time>2022-02-20T09:47:31Z</time>
      </trkpt>
      <trkpt lat="36.867889" lon="-3.704026">
        <ele>1320.0</ele>
        <time>2022-02-20T09:47:59Z</time>
      </trkpt>
      <trkpt lat="36.867775" lon="-3.703859">
        <ele>1315.7</ele>
        <time>2022-02-20T09:48:23Z</time>
      </trkpt>
      <trkpt lat="36.867696" lon="-3.703852">
        <ele>1313.8</ele>
        <time>2022-02-20T09:52:31Z</time>
      </trkpt>
      <trkpt lat="36.867820" lon="-3.703811">
        <ele>1315.2</ele>
        <time>2022-02-20T09:55:21Z</time>
      </trkpt>
      <trkpt lat="36.867940" lon="-3.703878">
        <ele>1311.9</ele>
        <time>2022-02-20T09:57:08Z</time>
      </trkpt>
      <trkpt lat="36.868121" lon="-3.703837">
        <ele>1308.0</ele>
        <time>2022-02-20T09:58:03Z</time>
      </trkpt>
      <trkpt lat="36.868174" lon="-3.703712">
        <ele>1302.7</ele>
        <time>2022-02-20T09:58:49Z</time>
      </trkpt>
      <trkpt lat="36.868142" lon="-3.703524">
        <ele>1298.4</ele>
        <time>2022-02-20T09:59:27Z</time>
      </trkpt>
      <trkpt lat="36.868175" lon="-3.703258">
        <ele>1289.7</ele>
        <time>2022-02-20T10:00:48Z</time>
      </trkpt>
      <trkpt lat="36.868310" lon="-3.703233">
        <ele>1285.9</ele>
        <time>2022-02-20T10:02:01Z</time>
      </trkpt>
      <trkpt lat="36.868453" lon="-3.703103">
        <ele>1291.2</ele>
        <time>2022-02-20T10:02:49Z</time>
      </trkpt>
      <trkpt lat="36.868580" lon="-3.702981">
        <ele>1289.3</ele>
        <time>2022-02-20T10:03:25Z</time>
      </trkpt>
      <trkpt lat="36.868671" lon="-3.702805">
        <ele>1290.2</ele>
        <time>2022-02-20T10:04:10Z</time>
      </trkpt>
      <trkpt lat="36.868709" lon="-3.702588">
        <ele>1295.0</ele>
        <time>2022-02-20T10:04:36Z</time>
      </trkpt>
      <trkpt lat="36.868700" lon="-3.702506">
        <ele>1299.8</ele>
        <time>2022-02-20T10:05:50Z</time>
      </trkpt>
      <trkpt lat="36.868852" lon="-3.702456">
        <ele>1299.4</ele>
        <time>2022-02-20T10:06:28Z</time>
      </trkpt>
      <trkpt lat="36.868990" lon="-3.702294">
        <ele>1300.8</ele>
        <time>2022-02-20T10:06:49Z</time>
      </trkpt>
      <trkpt lat="36.869085" lon="-3.702131">
        <ele>1299.4</ele>
        <time>2022-02-20T10:07:16Z</time>
      </trkpt>
      <trkpt lat="36.869177" lon="-3.701970">
        <ele>1301.3</ele>
        <time>2022-02-20T10:08:11Z</time>
      </trkpt>
      <trkpt lat="36.869276" lon="-3.702032">
        <ele>1296.0</ele>
        <time>2022-02-20T10:10:04Z</time>
      </trkpt>
      <trkpt lat="36.869312" lon="-3.702083">
        <ele>1291.2</ele>
        <time>2022-02-20T10:12:01Z</time>
      </trkpt>
      <trkpt lat="36.869429" lon="-3.702223">
        <ele>1284.0</ele>
        <time>2022-02-20T10:12:49Z</time>
      </trkpt>
      <trkpt lat="36.869524" lon="-3.702398">
        <ele>1273.4</ele>
        <time>2022-02-20T10:13:27Z</time>
      </trkpt>
      <trkpt lat="36.869672" lon="-3.702509">
        <ele>1266.7</ele>
        <time>2022-02-20T10:14:23Z</time>
      </trkpt>
      <trkpt lat="36.869644" lon="-3.702342">
        <ele>1266.7</ele>
        <time>2022-02-20T10:16:08Z</time>
      </trkpt>
      <trkpt lat="36.869772" lon="-3.702133">
        <ele>1270.5</ele>
        <time>2022-02-20T10:17:00Z</time>
      </trkpt>
      <trkpt lat="36.869888" lon="-3.701939">
        <ele>1268.6</ele>
        <time>2022-02-20T10:17:36Z</time>
      </trkpt>
      <trkpt lat="36.869973" lon="-3.702015">
        <ele>1265.2</ele>
        <time>2022-02-20T10:19:05Z</time>
      </trkpt>
      <trkpt lat="36.870004" lon="-3.702166">
        <ele>1257.1</ele>
        <time>2022-02-20T10:20:05Z</time>
      </trkpt>
      <trkpt lat="36.870129" lon="-3.702391">
        <ele>1259.5</ele>
        <time>2022-02-20T10:21:53Z</time>
      </trkpt>
      <trkpt lat="36.870313" lon="-3.702485">
        <ele>1271.5</ele>
        <time>2022-02-20T10:23:04Z</time>
      </trkpt>
      <trkpt lat="36.870469" lon="-3.702617">
        <ele>1274.8</ele>
        <time>2022-02-20T10:24:04Z</time>
      </trkpt>
      <trkpt lat="36.870432" lon="-3.702820">
        <ele>1284.0</ele>
        <time>2022-02-20T10:25:25Z</time>
      </trkpt>
      <trkpt lat="36.870523" lon="-3.702989">
        <ele>1284.0</ele>
        <time>2022-02-20T10:26:52Z</time>
      </trkpt>
      <trkpt lat="36.870451" lon="-3.703170">
        <ele>1291.7</ele>
        <time>2022-02-20T10:29:48Z</time>
      </trkpt>
      <trkpt lat="36.870390" lon="-3.703304">
        <ele>1296.5</ele>
        <time>2022-02-20T10:31:02Z</time>
      </trkpt>
      <trkpt lat="36.870541" lon="-3.703440">
        <ele>1298.4</ele>
        <time>2022-02-20T10:31:57Z</time>
      </trkpt>
      <trkpt lat="36.870679" lon="-3.703479">
        <ele>1300.3</ele>
        <time>2022-02-20T10:32:29Z</time>
      </trkpt>
      <trkpt lat="36.870808" lon="-3.703547">
        <ele>1298.9</ele>
        <time>2022-02-20T10:33:27Z</time>
      </trkpt>
      <trkpt lat="36.870836" lon="-3.703640">
        <ele>1295.5</ele>
        <time>2022-02-20T10:36:53Z</time>
      </trkpt>
      <trkpt lat="36.870722" lon="-3.703581">
        <ele>1299.8</ele>
        <time>2022-02-20T10:37:46Z</time>
      </trkpt>
      <trkpt lat="36.870569" lon="-3.703636">
        <ele>1298.9</ele>
        <time>2022-02-20T10:38:23Z</time>
      </trkpt>
      <trkpt lat="36.870430" lon="-3.703807">
        <ele>1305.6</ele>
        <time>2022-02-20T10:38:57Z</time>
      </trkpt>
      <trkpt lat="36.870252" lon="-3.703889">
        <ele>1311.4</ele>
        <time>2022-02-20T10:39:27Z</time>
      </trkpt>
      <trkpt lat="36.870105" lon="-3.704024">
        <ele>1316.7</ele>
        <time>2022-02-20T10:40:06Z</time>
      </trkpt>
      <trkpt lat="36.869954" lon="-3.704100">
        <ele>1317.6</ele>
        <time>2022-02-20T10:40:36Z</time>
      </trkpt>
      <trkpt lat="36.869798" lon="-3.704159">
        <ele>1321.0</ele>
        <time>2022-02-20T10:41:19Z</time>
      </trkpt>
      <trkpt lat="36.869664" lon="-3.704332">
        <ele>1321.5</ele>
        <time>2022-02-20T10:41:46Z</time>
      </trkpt>
      <trkpt lat="36.869496" lon="-3.704432">
        <ele>1323.4</ele>
        <time>2022-02-20T10:42:09Z</time>
      </trkpt>
      <trkpt lat="36.869359" lon="-3.704578">
        <ele>1326.3</ele>
        <time>2022-02-20T10:42:53Z</time>
      </trkpt>
      <trkpt lat="36.869179" lon="-3.704696">
        <ele>1332.0</ele>
        <time>2022-02-20T10:43:30Z</time>
      </trkpt>
      <trkpt lat="36.869089" lon="-3.704822">
        <ele>1336.9</ele>
        <time>2022-02-20T10:44:04Z</time>
      </trkpt>
      <trkpt lat="36.868994" lon="-3.705012">
        <ele>1346.0</ele>
        <time>2022-02-20T10:44:56Z</time>
      </trkpt>
      <trkpt lat="36.868916" lon="-3.705158">
        <ele>1347.9</ele>
        <time>2022-02-20T10:46:31Z</time>
      </trkpt>
      <trkpt lat="36.868814" lon="-3.705321">
        <ele>1349.3</ele>
        <time>2022-02-20T10:47:06Z</time>
      </trkpt>
      <trkpt lat="36.868685" lon="-3.705466">
        <ele>1348.4</ele>
        <time>2022-02-20T10:47:41Z</time>
      </trkpt>
      <trkpt lat="36.868592" lon="-3.705670">
        <ele>1348.9</ele>
        <time>2022-02-20T10:48:13Z</time>
      </trkpt>
      <trkpt lat="36.868498" lon="-3.705888">
        <ele>1344.5</ele>
        <time>2022-02-20T10:49:16Z</time>
      </trkpt>
      <trkpt lat="36.868468" lon="-3.706123">
        <ele>1352.7</ele>
        <time>2022-02-20T10:49:50Z</time>
      </trkpt>
      <trkpt lat="36.868451" lon="-3.706353">
        <ele>1349.8</ele>
        <time>2022-02-20T10:50:16Z</time>
      </trkpt>
      <trkpt lat="36.868468" lon="-3.706560">
        <ele>1347.9</ele>
        <time>2022-02-20T10:51:39Z</time>
      </trkpt>
      <trkpt lat="36.868516" lon="-3.706794">
        <ele>1346.0</ele>
        <time>2022-02-20T10:52:15Z</time>
      </trkpt>
      <trkpt lat="36.868563" lon="-3.707010">
        <ele>1343.6</ele>
        <time>2022-02-20T10:52:35Z</time>
      </trkpt>
      <trkpt lat="36.868663" lon="-3.707189">
        <ele>1343.1</ele>
        <time>2022-02-20T10:53:05Z</time>
      </trkpt>
      <trkpt lat="36.868775" lon="-3.707366">
        <ele>1341.2</ele>
        <time>2022-02-20T10:53:31Z</time>
      </trkpt>
      <trkpt lat="36.868880" lon="-3.707552">
        <ele>1342.6</ele>
        <time>2022-02-20T10:53:56Z</time>
      </trkpt>
      <trkpt lat="36.868903" lon="-3.707784">
        <ele>1344.5</ele>
        <time>2022-02-20T10:54:24Z</time>
      </trkpt>
      <trkpt lat="36.869058" lon="-3.707859">
        <ele>1341.2</ele>
        <time>2022-02-20T10:55:24Z</time>
      </trkpt>
      <trkpt lat="36.869230" lon="-3.707859">
        <ele>1335.4</ele>
        <time>2022-02-20T10:55:49Z</time>
      </trkpt>
      <trkpt lat="36.869395" lon="-3.707879">
        <ele>1335.4</ele>
        <time>2022-02-20T10:56:06Z</time>
      </trkpt>
      <trkpt lat="36.869559" lon="-3.707804">
        <ele>1336.9</ele>
        <time>2022-02-20T10:56:26Z</time>
      </trkpt>
      <trkpt lat="36.869732" lon="-3.707793">
        <ele>1338.8</ele>
        <time>2022-02-20T10:56:42Z</time>
      </trkpt>
      <trkpt lat="36.869900" lon="-3.707854">
        <ele>1339.3</ele>
        <time>2022-02-20T10:56:59Z</time>
      </trkpt>
      <trkpt lat="36.870025" lon="-3.707943">
        <ele>1335.4</ele>
        <time>2022-02-20T10:57:31Z</time>
      </trkpt>
      <trkpt lat="36.870205" lon="-3.707923">
        <ele>1334.4</ele>
        <time>2022-02-20T10:57:48Z</time>
      </trkpt>
      <trkpt lat="36.870355" lon="-3.707774">
        <ele>1330.6</ele>
        <time>2022-02-20T10:58:06Z</time>
      </trkpt>
      <trkpt lat="36.870510" lon="-3.707660">
        <ele>1328.2</ele>
        <time>2022-02-20T10:58:23Z</time>
      </trkpt>
      <trkpt lat="36.870642" lon="-3.707510">
        <ele>1326.8</ele>
        <time>2022-02-20T10:58:39Z</time>
      </trkpt>
      <trkpt lat="36.870723" lon="-3.707300">
        <ele>1320.5</ele>
        <time>2022-02-20T10:58:58Z</time>
      </trkpt>
      <trkpt lat="36.870779" lon="-3.707079">
        <ele>1318.1</ele>
        <time>2022-02-20T10:59:13Z</time>
      </trkpt>
      <trkpt lat="36.870856" lon="-3.706880">
        <ele>1318.6</ele>
        <time>2022-02-20T10:59:28Z</time>
      </trkpt>
      <trkpt lat="36.871018" lon="-3.706793">
        <ele>1318.1</ele>
        <time>2022-02-20T10:59:59Z</time>
      </trkpt>
      <trkpt lat="36.871173" lon="-3.706673">
        <ele>1318.1</ele>
        <time>2022-02-20T11:00:19Z</time>
      </trkpt>
      <trkpt lat="36.871287" lon="-3.706547">
        <ele>1316.7</ele>
        <time>2022-02-20T11:00:59Z</time>
      </trkpt>
      <trkpt lat="36.871399" lon="-3.706466">
        <ele>1316.2</ele>
        <time>2022-02-20T11:02:44Z</time>
      </trkpt>
      <trkpt lat="36.871546" lon="-3.706330">
        <ele>1314.3</ele>
        <time>2022-02-20T11:03:12Z</time>
      </trkpt>
      <trkpt lat="36.871704" lon="-3.706230">
        <ele>1310.4</ele>
        <time>2022-02-20T11:03:38Z</time>
      </trkpt>
      <trkpt lat="36.871875" lon="-3.706125">
        <ele>1309.5</ele>
        <time>2022-02-20T11:03:58Z</time>
      </trkpt>
      <trkpt lat="36.872054" lon="-3.706068">
        <ele>1308.0</ele>
        <time>2022-02-20T11:04:19Z</time>
      </trkpt>
      <trkpt lat="36.872238" lon="-3.706039">
        <ele>1308.5</ele>
        <time>2022-02-20T11:04:41Z</time>
      </trkpt>
      <trkpt lat="36.872426" lon="-3.706036">
        <ele>1309.9</ele>
        <time>2022-02-20T11:05:04Z</time>
      </trkpt>
      <trkpt lat="36.872596" lon="-3.705966">
        <ele>1311.4</ele>
        <time>2022-02-20T11:05:24Z</time>
      </trkpt>
      <trkpt lat="36.872746" lon="-3.705854">
        <ele>1312.8</ele>
        <time>2022-02-20T11:05:47Z</time>
      </trkpt>
      <trkpt lat="36.872798" lon="-3.705840">
        <ele>1309.5</ele>
        <time>2022-02-20T11:07:09Z</time>
      </trkpt>
      <trkpt lat="36.872803" lon="-3.705878">
        <ele>1307.0</ele>
        <time>2022-02-20T11:08:28Z</time>
      </trkpt>
      <trkpt lat="36.872817" lon="-3.705816">
        <ele>1313.3</ele>
        <time>2022-02-20T11:10:14Z</time>
      </trkpt>
      <trkpt lat="36.872809" lon="-3.705844">
        <ele>1313.8</ele>
        <time>2022-02-20T11:14:22Z</time>
      </trkpt>
      <trkpt lat="36.872806" lon="-3.705840">
        <ele>1315.2</ele>
        <time>2022-02-20T11:19:44Z</time>
      </trkpt>
      <trkpt lat="36.872800" lon="-3.705834">
        <ele>1316.2</ele>
        <time>2022-02-20T11:24:51Z</time>
      </trkpt>
      <trkpt lat="36.872752" lon="-3.705881">
        <ele>1311.9</ele>
        <time>2022-02-20T11:26:34Z</time>
      </trkpt>
      <trkpt lat="36.872822" lon="-3.706065">
        <ele>1305.1</ele>
        <time>2022-02-20T11:27:18Z</time>
      </trkpt>
      <trkpt lat="36.872994" lon="-3.705970">
        <ele>1300.8</ele>
        <time>2022-02-20T11:27:39Z</time>
      </trkpt>
      <trkpt lat="36.873148" lon="-3.705847">
        <ele>1297.0</ele>
        <time>2022-02-20T11:27:57Z</time>
      </trkpt>
      <trkpt lat="36.873337" lon="-3.705787">
        <ele>1292.6</ele>
        <time>2022-02-20T11:28:19Z</time>
      </trkpt>
      <trkpt lat="36.873526" lon="-3.705803">
        <ele>1288.8</ele>
        <time>2022-02-20T11:28:43Z</time>
      </trkpt>
      <trkpt lat="36.873712" lon="-3.705864">
        <ele>1285.4</ele>
        <time>2022-02-20T11:29:03Z</time>
      </trkpt>
      <trkpt lat="36.873885" lon="-3.705921">
        <ele>1284.0</ele>
        <time>2022-02-20T11:29:21Z</time>
      </trkpt>
      <trkpt lat="36.874065" lon="-3.705964">
        <ele>1283.5</ele>
        <time>2022-02-20T11:29:39Z</time>
      </trkpt>
      <trkpt lat="36.874119" lon="-3.706121">
        <ele>1279.2</ele>
        <time>2022-02-20T11:30:30Z</time>
      </trkpt>
      <trkpt lat="36.874190" lon="-3.706370">
        <ele>1272.4</ele>
        <time>2022-02-20T11:30:58Z</time>
      </trkpt>
      <trkpt lat="36.874249" lon="-3.706598">
        <ele>1266.2</ele>
        <time>2022-02-20T11:31:20Z</time>
      </trkpt>
      <trkpt lat="36.874241" lon="-3.706867">
        <ele>1262.8</ele>
        <time>2022-02-20T11:31:39Z</time>
      </trkpt>
      <trkpt lat="36.874292" lon="-3.707118">
        <ele>1261.4</ele>
        <time>2022-02-20T11:31:57Z</time>
      </trkpt>
      <trkpt lat="36.874345" lon="-3.707396">
        <ele>1256.1</ele>
        <time>2022-02-20T11:32:17Z</time>
      </trkpt>
      <trkpt lat="36.874467" lon="-3.707595">
        <ele>1247.0</ele>
        <time>2022-02-20T11:32:46Z</time>
      </trkpt>
      <trkpt lat="36.874702" lon="-3.707779">
        <ele>1235.9</ele>
        <time>2022-02-20T11:33:16Z</time>
      </trkpt>
      <trkpt lat="36.874873" lon="-3.707930">
        <ele>1225.8</ele>
        <time>2022-02-20T11:33:41Z</time>
      </trkpt>
      <trkpt lat="36.875055" lon="-3.707950">
        <ele>1222.9</ele>
        <time>2022-02-20T11:33:59Z</time>
      </trkpt>
      <trkpt lat="36.875171" lon="-3.708158">
        <ele>1224.4</ele>
        <time>2022-02-20T11:34:30Z</time>
      </trkpt>
      <trkpt lat="36.875334" lon="-3.708323">
        <ele>1223.4</ele>
        <time>2022-02-20T11:34:53Z</time>
      </trkpt>
      <trkpt lat="36.875534" lon="-3.708328">
        <ele>1222.9</ele>
        <time>2022-02-20T11:35:09Z</time>
      </trkpt>
      <trkpt lat="36.875724" lon="-3.708292">
        <ele>1222.9</ele>
        <time>2022-02-20T11:35:24Z</time>
      </trkpt>
      <trkpt lat="36.875932" lon="-3.708319">
        <ele>1224.9</ele>
        <time>2022-02-20T11:35:39Z</time>
      </trkpt>
      <trkpt lat="36.876130" lon="-3.708428">
        <ele>1225.8</ele>
        <time>2022-02-20T11:35:53Z</time>
      </trkpt>
      <trkpt lat="36.876308" lon="-3.708529">
        <ele>1225.8</ele>
        <time>2022-02-20T11:36:07Z</time>
      </trkpt>
      <trkpt lat="36.876493" lon="-3.708600">
        <ele>1226.8</ele>
        <time>2022-02-20T11:36:21Z</time>
      </trkpt>
      <trkpt lat="36.876676" lon="-3.708567">
        <ele>1225.3</ele>
        <time>2022-02-20T11:36:35Z</time>
      </trkpt>
      <trkpt lat="36.876871" lon="-3.708621">
        <ele>1224.4</ele>
        <time>2022-02-20T11:36:49Z</time>
      </trkpt>
      <trkpt lat="36.877030" lon="-3.708754">
        <ele>1222.0</ele>
        <time>2022-02-20T11:37:03Z</time>
      </trkpt>
      <trkpt lat="36.877198" lon="-3.708879">
        <ele>1219.6</ele>
        <time>2022-02-20T11:37:17Z</time>
      </trkpt>
      <trkpt lat="36.877327" lon="-3.709062">
        <ele>1216.7</ele>
        <time>2022-02-20T11:37:30Z</time>
      </trkpt>
      <trkpt lat="36.877462" lon="-3.709306">
        <ele>1215.2</ele>
        <time>2022-02-20T11:37:44Z</time>
      </trkpt>
      <trkpt lat="36.877552" lon="-3.709496">
        <ele>1214.3</ele>
        <time>2022-02-20T11:37:58Z</time>
      </trkpt>
      <trkpt lat="36.877668" lon="-3.709568">
        <ele>1214.3</ele>
        <time>2022-02-20T11:38:13Z</time>
      </trkpt>
      <trkpt lat="36.877844" lon="-3.709581">
        <ele>1212.8</ele>
        <time>2022-02-20T11:38:27Z</time>
      </trkpt>
      <trkpt lat="36.878014" lon="-3.709490">
        <ele>1212.8</ele>
        <time>2022-02-20T11:38:40Z</time>
      </trkpt>
      <trkpt lat="36.878192" lon="-3.709424">
        <ele>1212.4</ele>
        <time>2022-02-20T11:38:54Z</time>
      </trkpt>
      <trkpt lat="36.878350" lon="-3.709323">
        <ele>1211.4</ele>
        <time>2022-02-20T11:39:08Z</time>
      </trkpt>
      <trkpt lat="36.878522" lon="-3.709171">
        <ele>1211.4</ele>
        <time>2022-02-20T11:39:27Z</time>
      </trkpt>
      <trkpt lat="36.878699" lon="-3.709088">
        <ele>1208.0</ele>
        <time>2022-02-20T11:39:41Z</time>
      </trkpt>
      <trkpt lat="36.878889" lon="-3.709044">
        <ele>1208.0</ele>
        <time>2022-02-20T11:39:55Z</time>
      </trkpt>
      <trkpt lat="36.879063" lon="-3.708950">
        <ele>1206.6</ele>
        <time>2022-02-20T11:40:09Z</time>
      </trkpt>
      <trkpt lat="36.879249" lon="-3.708885">
        <ele>1206.1</ele>
        <time>2022-02-20T11:40:23Z</time>
      </trkpt>
      <trkpt lat="36.879438" lon="-3.708855">
        <ele>1205.1</ele>
        <time>2022-02-20T11:40:37Z</time>
      </trkpt>
      <trkpt lat="36.879637" lon="-3.708812">
        <ele>1203.7</ele>
        <time>2022-02-20T11:40:53Z</time>
      </trkpt>
      <trkpt lat="36.879829" lon="-3.708713">
        <ele>1201.3</ele>
        <time>2022-02-20T11:41:08Z</time>
      </trkpt>
      <trkpt lat="36.880028" lon="-3.708674">
        <ele>1199.9</ele>
        <time>2022-02-20T11:41:22Z</time>
      </trkpt>
      <trkpt lat="36.880219" lon="-3.708655">
        <ele>1197.9</ele>
        <time>2022-02-20T11:41:36Z</time>
      </trkpt>
      <trkpt lat="36.880402" lon="-3.708637">
        <ele>1196.5</ele>
        <time>2022-02-20T11:41:50Z</time>
      </trkpt>
      <trkpt lat="36.880588" lon="-3.708569">
        <ele>1196.0</ele>
        <time>2022-02-20T11:42:05Z</time>
      </trkpt>
      <trkpt lat="36.880770" lon="-3.708459">
        <ele>1194.1</ele>
        <time>2022-02-20T11:42:19Z</time>
      </trkpt>
      <trkpt lat="36.880949" lon="-3.708361">
        <ele>1192.7</ele>
        <time>2022-02-20T11:42:34Z</time>
      </trkpt>
      <trkpt lat="36.881067" lon="-3.708174">
        <ele>1192.2</ele>
        <time>2022-02-20T11:42:48Z</time>
      </trkpt>
      <trkpt lat="36.881188" lon="-3.707978">
        <ele>1191.7</ele>
        <time>2022-02-20T11:43:02Z</time>
      </trkpt>
      <trkpt lat="36.881336" lon="-3.707827">
        <ele>1190.2</ele>
        <time>2022-02-20T11:43:16Z</time>
      </trkpt>
      <trkpt lat="36.881431" lon="-3.707597">
        <ele>1185.4</ele>
        <time>2022-02-20T11:43:31Z</time>
      </trkpt>
      <trkpt lat="36.881495" lon="-3.707361">
        <ele>1185.4</ele>
        <time>2022-02-20T11:43:45Z</time>
      </trkpt>
      <trkpt lat="36.881602" lon="-3.707171">
        <ele>1185.9</ele>
        <time>2022-02-20T11:43:58Z</time>
      </trkpt>
      <trkpt lat="36.881698" lon="-3.706950">
        <ele>1185.0</ele>
        <time>2022-02-20T11:44:12Z</time>
      </trkpt>
      <trkpt lat="36.881773" lon="-3.706729">
        <ele>1184.5</ele>
        <time>2022-02-20T11:44:26Z</time>
      </trkpt>
      <trkpt lat="36.881918" lon="-3.706572">
        <ele>1184.0</ele>
        <time>2022-02-20T11:44:41Z</time>
      </trkpt>
      <trkpt lat="36.882208" lon="-3.706568">
        <ele>1183.0</ele>
        <time>2022-02-20T11:46:05Z</time>
      </trkpt>
      <trkpt lat="36.882232" lon="-3.706302">
        <ele>1186.9</ele>
        <time>2022-02-20T11:47:43Z</time>
      </trkpt>
      <trkpt lat="36.882388" lon="-3.706167">
        <ele>1186.9</ele>
        <time>2022-02-20T11:48:01Z</time>
      </trkpt>
      <trkpt lat="36.882558" lon="-3.706053">
        <ele>1189.3</ele>
        <time>2022-02-20T11:48:18Z</time>
      </trkpt>
      <trkpt lat="36.882720" lon="-3.705945">
        <ele>1191.7</ele>
        <time>2022-02-20T11:48:34Z</time>
      </trkpt>
      <trkpt lat="36.882925" lon="-3.705999">
        <ele>1193.1</ele>
        <time>2022-02-20T11:49:03Z</time>
      </trkpt>
      <trkpt lat="36.883108" lon="-3.705978">
        <ele>1195.1</ele>
        <time>2022-02-20T11:49:19Z</time>
      </trkpt>
      <trkpt lat="36.883292" lon="-3.705942">
        <ele>1197.5</ele>
        <time>2022-02-20T11:49:35Z</time>
      </trkpt>
      <trkpt lat="36.883478" lon="-3.705908">
        <ele>1200.3</ele>
        <time>2022-02-20T11:49:52Z</time>
      </trkpt>
      <trkpt lat="36.883680" lon="-3.706128">
        <ele>1202.3</ele>
        <time>2022-02-20T11:50:16Z</time>
      </trkpt>
      <trkpt lat="36.883906" lon="-3.706242">
        <ele>1206.1</ele>
        <time>2022-02-20T11:50:47Z</time>
      </trkpt>
      <trkpt lat="36.884086" lon="-3.706265">
        <ele>1210.4</ele>
        <time>2022-02-20T11:51:07Z</time>
      </trkpt>
      <trkpt lat="36.884292" lon="-3.706337">
        <ele>1211.9</ele>
        <time>2022-02-20T11:51:42Z</time>
      </trkpt>
      <trkpt lat="36.884459" lon="-3.706323">
        <ele>1215.2</ele>
        <time>2022-02-20T11:52:09Z</time>
      </trkpt>
      <trkpt lat="36.884347" lon="-3.706337">
        <ele>1213.8</ele>
        <time>2022-02-20T11:53:09Z</time>
      </trkpt>
      <trkpt lat="36.884161" lon="-3.706319">
        <ele>1210.4</ele>
        <time>2022-02-20T11:53:27Z</time>
      </trkpt>
      <trkpt lat="36.883992" lon="-3.706250">
        <ele>1207.6</ele>
        <time>2022-02-20T11:53:47Z</time>
      </trkpt>
      <trkpt lat="36.883775" lon="-3.706263">
        <ele>1204.7</ele>
        <time>2022-02-20T11:54:11Z</time>
      </trkpt>
      <trkpt lat="36.883903" lon="-3.706096">
        <ele>1201.3</ele>
        <time>2022-02-20T11:54:31Z</time>
      </trkpt>
      <trkpt lat="36.884074" lon="-3.706041">
        <ele>1200.8</ele>
        <time>2022-02-20T11:54:51Z</time>
      </trkpt>
      <trkpt lat="36.884261" lon="-3.706087">
        <ele>1198.4</ele>
        <time>2022-02-20T11:55:08Z</time>
      </trkpt>
      <trkpt lat="36.884379" lon="-3.705915">
        <ele>1199.4</ele>
        <time>2022-02-20T11:55:25Z</time>
      </trkpt>
      <trkpt lat="36.884530" lon="-3.705792">
        <ele>1197.9</ele>
        <time>2022-02-20T11:55:43Z</time>
      </trkpt>
      <trkpt lat="36.884638" lon="-3.705686">
        <ele>1193.1</ele>
        <time>2022-02-20T11:56:09Z</time>
      </trkpt>
      <trkpt lat="36.884794" lon="-3.705517">
        <ele>1191.7</ele>
        <time>2022-02-20T11:56:34Z</time>
      </trkpt>
      <trkpt lat="36.884790" lon="-3.705528">
        <ele>1192.2</ele>
        <time>2022-02-20T11:57:04Z</time>
      </trkpt>
      <trkpt lat="36.884627" lon="-3.705690">
        <ele>1192.2</ele>
        <time>2022-02-20T11:57:23Z</time>
      </trkpt>
      <trkpt lat="36.884421" lon="-3.705676">
        <ele>1189.3</ele>
        <time>2022-02-20T11:57:38Z</time>
      </trkpt>
      <trkpt lat="36.884266" lon="-3.705564">
        <ele>1185.9</ele>
        <time>2022-02-20T11:57:57Z</time>
      </trkpt>
      <trkpt lat="36.884187" lon="-3.705313">
        <ele>1179.2</ele>
        <time>2022-02-20T11:58:16Z</time>
      </trkpt>
      <trkpt lat="36.884287" lon="-3.705089">
        <ele>1175.3</ele>
        <time>2022-02-20T11:58:41Z</time>
      </trkpt>
      <trkpt lat="36.884499" lon="-3.704945">
        <ele>1170.5</ele>
        <time>2022-02-20T11:59:27Z</time>
      </trkpt>
      <trkpt lat="36.884672" lon="-3.704883">
        <ele>1169.6</ele>
        <time>2022-02-20T11:59:45Z</time>
      </trkpt>
      <trkpt lat="36.884852" lon="-3.704773">
        <ele>1166.7</ele>
        <time>2022-02-20T12:00:05Z</time>
      </trkpt>
      <trkpt lat="36.885196" lon="-3.704724">
        <ele>1164.3</ele>
        <time>2022-02-20T12:00:22Z</time>
      </trkpt>
      <trkpt lat="36.885445" lon="-3.704877">
        <ele>1162.4</ele>
        <time>2022-02-20T12:00:38Z</time>
      </trkpt>
      <trkpt lat="36.885586" lon="-3.705043">
        <ele>1161.9</ele>
        <time>2022-02-20T12:00:53Z</time>
      </trkpt>
      <trkpt lat="36.885745" lon="-3.705195">
        <ele>1161.4</ele>
        <time>2022-02-20T12:01:07Z</time>
      </trkpt>
      <trkpt lat="36.885950" lon="-3.705292">
        <ele>1160.4</ele>
        <time>2022-02-20T12:01:22Z</time>
      </trkpt>
      <trkpt lat="36.886160" lon="-3.705349">
        <ele>1160.0</ele>
        <time>2022-02-20T12:01:37Z</time>
      </trkpt>
      <trkpt lat="36.886354" lon="-3.705386">
        <ele>1159.5</ele>
        <time>2022-02-20T12:01:52Z</time>
      </trkpt>
      <trkpt lat="36.886543" lon="-3.705438">
        <ele>1158.0</ele>
        <time>2022-02-20T12:02:07Z</time>
      </trkpt>
      <trkpt lat="36.886735" lon="-3.705483">
        <ele>1157.6</ele>
        <time>2022-02-20T12:02:22Z</time>
      </trkpt>
      <trkpt lat="36.886924" lon="-3.705530">
        <ele>1157.1</ele>
        <time>2022-02-20T12:02:37Z</time>
      </trkpt>
      <trkpt lat="36.887114" lon="-3.705638">
        <ele>1157.1</ele>
        <time>2022-02-20T12:02:51Z</time>
      </trkpt>
      <trkpt lat="36.887293" lon="-3.705773">
        <ele>1156.6</ele>
        <time>2022-02-20T12:03:06Z</time>
      </trkpt>
      <trkpt lat="36.887406" lon="-3.705981">
        <ele>1156.1</ele>
        <time>2022-02-20T12:03:20Z</time>
      </trkpt>
      <trkpt lat="36.887560" lon="-3.706119">
        <ele>1156.6</ele>
        <time>2022-02-20T12:03:36Z</time>
      </trkpt>
      <trkpt lat="36.887695" lon="-3.706301">
        <ele>1157.6</ele>
        <time>2022-02-20T12:04:10Z</time>
      </trkpt>
      <trkpt lat="36.887865" lon="-3.706366">
        <ele>1156.6</ele>
        <time>2022-02-20T12:04:31Z</time>
      </trkpt>
      <trkpt lat="36.888125" lon="-3.706325">
        <ele>1155.2</ele>
        <time>2022-02-20T12:05:40Z</time>
      </trkpt>
      <trkpt lat="36.888279" lon="-3.706315">
        <ele>1157.6</ele>
        <time>2022-02-20T12:06:40Z</time>
      </trkpt>
      <trkpt lat="36.888207" lon="-3.706372">
        <ele>1157.6</ele>
        <time>2022-02-20T12:07:51Z</time>
      </trkpt>
      <trkpt lat="36.888183" lon="-3.706503">
        <ele>1158.0</ele>
        <time>2022-02-20T12:09:16Z</time>
      </trkpt>
      <trkpt lat="36.888238" lon="-3.706647">
        <ele>1157.6</ele>
        <time>2022-02-20T12:09:58Z</time>
      </trkpt>
      <trkpt lat="36.888128" lon="-3.706431">
        <ele>1157.1</ele>
        <time>2022-02-20T12:10:20Z</time>
      </trkpt>
      <trkpt lat="36.888292" lon="-3.706665">
        <ele>1157.6</ele>
        <time>2022-02-20T12:10:51Z</time>
      </trkpt>
      <trkpt lat="36.888320" lon="-3.706903">
        <ele>1160.0</ele>
        <time>2022-02-20T12:11:13Z</time>
      </trkpt>
      <trkpt lat="36.888362" lon="-3.707218">
        <ele>1160.4</ele>
        <time>2022-02-20T12:11:35Z</time>
      </trkpt>
      <trkpt lat="36.888293" lon="-3.707483">
        <ele>1160.0</ele>
        <time>2022-02-20T12:11:55Z</time>
      </trkpt>
      <trkpt lat="36.888224" lon="-3.707771">
        <ele>1162.4</ele>
        <time>2022-02-20T12:12:17Z</time>
      </trkpt>
      <trkpt lat="36.888126" lon="-3.708073">
        <ele>1163.3</ele>
        <time>2022-02-20T12:12:43Z</time>
      </trkpt>
      <trkpt lat="36.887994" lon="-3.708529">
        <ele>1166.2</ele>
        <time>2022-02-20T12:14:25Z</time>
      </trkpt>
      <trkpt lat="36.887829" lon="-3.708755">
        <ele>1170.1</ele>
        <time>2022-02-20T12:14:54Z</time>
      </trkpt>
      <trkpt lat="36.887900" lon="-3.709358">
        <ele>1176.8</ele>
        <time>2022-02-20T12:15:51Z</time>
      </trkpt>
      <trkpt lat="36.887808" lon="-3.709601">
        <ele>1181.6</ele>
        <time>2022-02-20T12:16:28Z</time>
      </trkpt>
      <trkpt lat="36.887694" lon="-3.710136">
        <ele>1189.8</ele>
        <time>2022-02-20T12:17:39Z</time>
      </trkpt>
      <trkpt lat="36.887460" lon="-3.710532">
        <ele>1197.9</ele>
        <time>2022-02-20T12:18:29Z</time>
      </trkpt>
      <trkpt lat="36.887105" lon="-3.710895">
        <ele>1210.9</ele>
        <time>2022-02-20T12:19:22Z</time>
      </trkpt>
      <trkpt lat="36.886892" lon="-3.711004">
        <ele>1212.4</ele>
        <time>2022-02-20T12:19:58Z</time>
      </trkpt>
      <trkpt lat="36.886660" lon="-3.711058">
        <ele>1211.4</ele>
        <time>2022-02-20T12:20:13Z</time>
      </trkpt>
      <trkpt lat="36.886478" lon="-3.711209">
        <ele>1212.4</ele>
        <time>2022-02-20T12:20:27Z</time>
      </trkpt>
      <trkpt lat="36.886439" lon="-3.711484">
        <ele>1213.8</ele>
        <time>2022-02-20T12:20:48Z</time>
      </trkpt>
      <trkpt lat="36.886339" lon="-3.711667">
        <ele>1215.7</ele>
        <time>2022-02-20T12:21:05Z</time>
      </trkpt>
      <trkpt lat="36.886117" lon="-3.711706">
        <ele>1212.8</ele>
        <time>2022-02-20T12:21:21Z</time>
      </trkpt>
      <trkpt lat="36.885936" lon="-3.711811">
        <ele>1214.3</ele>
        <time>2022-02-20T12:21:35Z</time>
      </trkpt>
      <trkpt lat="36.885759" lon="-3.711921">
        <ele>1216.2</ele>
        <time>2022-02-20T12:21:49Z</time>
      </trkpt>
      <trkpt lat="36.885599" lon="-3.712030">
        <ele>1216.7</ele>
        <time>2022-02-20T12:22:04Z</time>
      </trkpt>
      <trkpt lat="36.885460" lon="-3.712140">
        <ele>1217.6</ele>
        <time>2022-02-20T12:22:19Z</time>
      </trkpt>
      <trkpt lat="36.885222" lon="-3.712199">
        <ele>1219.1</ele>
        <time>2022-02-20T12:22:39Z</time>
      </trkpt>
      <trkpt lat="36.885100" lon="-3.712388">
        <ele>1223.4</ele>
        <time>2022-02-20T12:22:56Z</time>
      </trkpt>
      <trkpt lat="36.884998" lon="-3.712600">
        <ele>1223.9</ele>
        <time>2022-02-20T12:23:16Z</time>
      </trkpt>
      <trkpt lat="36.884847" lon="-3.712794">
        <ele>1228.2</ele>
        <time>2022-02-20T12:23:36Z</time>
      </trkpt>
      <trkpt lat="36.884767" lon="-3.712990">
        <ele>1229.7</ele>
        <time>2022-02-20T12:23:53Z</time>
      </trkpt>
      <trkpt lat="36.884609" lon="-3.713191">
        <ele>1231.6</ele>
        <time>2022-02-20T12:24:15Z</time>
      </trkpt>
      <trkpt lat="36.884461" lon="-3.713321">
        <ele>1235.4</ele>
        <time>2022-02-20T12:24:30Z</time>
      </trkpt>
      <trkpt lat="36.884334" lon="-3.713479">
        <ele>1237.4</ele>
        <time>2022-02-20T12:24:45Z</time>
      </trkpt>
      <trkpt lat="36.884201" lon="-3.713638">
        <ele>1237.8</ele>
        <time>2022-02-20T12:25:00Z</time>
      </trkpt>
      <trkpt lat="36.883984" lon="-3.713806">
        <ele>1241.2</ele>
        <time>2022-02-20T12:25:25Z</time>
      </trkpt>
      <trkpt lat="36.883804" lon="-3.713918">
        <ele>1241.2</ele>
        <time>2022-02-20T12:25:41Z</time>
      </trkpt>
      <trkpt lat="36.883649" lon="-3.713977">
        <ele>1239.8</ele>
        <time>2022-02-20T12:25:56Z</time>
      </trkpt>
      <trkpt lat="36.883465" lon="-3.714032">
        <ele>1240.2</ele>
        <time>2022-02-20T12:26:15Z</time>
      </trkpt>
      <trkpt lat="36.883234" lon="-3.714082">
        <ele>1239.3</ele>
        <time>2022-02-20T12:26:30Z</time>
      </trkpt>
      <trkpt lat="36.883032" lon="-3.714170">
        <ele>1239.3</ele>
        <time>2022-02-20T12:27:04Z</time>
      </trkpt>
      <trkpt lat="36.882827" lon="-3.714363">
        <ele>1239.3</ele>
        <time>2022-02-20T12:27:26Z</time>
      </trkpt>
      <trkpt lat="36.882678" lon="-3.714511">
        <ele>1240.2</ele>
        <time>2022-02-20T12:27:52Z</time>
      </trkpt>
      <trkpt lat="36.882470" lon="-3.714676">
        <ele>1241.2</ele>
        <time>2022-02-20T12:28:18Z</time>
      </trkpt>
      <trkpt lat="36.882150" lon="-3.714666">
        <ele>1243.6</ele>
        <time>2022-02-20T12:29:21Z</time>
      </trkpt>
      <trkpt lat="36.882115" lon="-3.714798">
        <ele>1242.6</ele>
        <time>2022-02-20T12:32:17Z</time>
      </trkpt>
      <trkpt lat="36.881896" lon="-3.714819">
        <ele>1243.6</ele>
        <time>2022-02-20T12:32:38Z</time>
      </trkpt>
      <trkpt lat="36.881671" lon="-3.714873">
        <ele>1245.5</ele>
        <time>2022-02-20T12:33:17Z</time>
      </trkpt>
      <trkpt lat="36.881428" lon="-3.714969">
        <ele>1251.8</ele>
        <time>2022-02-20T12:33:48Z</time>
      </trkpt>
      <trkpt lat="36.881233" lon="-3.714937">
        <ele>1253.7</ele>
        <time>2022-02-20T12:34:18Z</time>
      </trkpt>
      <trkpt lat="36.881042" lon="-3.714904">
        <ele>1254.7</ele>
        <time>2022-02-20T12:34:36Z</time>
      </trkpt>
      <trkpt lat="36.880862" lon="-3.714844">
        <ele>1254.2</ele>
        <time>2022-02-20T12:34:55Z</time>
      </trkpt>
      <trkpt lat="36.880666" lon="-3.714837">
        <ele>1253.7</ele>
        <time>2022-02-20T12:35:12Z</time>
      </trkpt>
      <trkpt lat="36.880489" lon="-3.714790">
        <ele>1252.3</ele>
        <time>2022-02-20T12:35:27Z</time>
      </trkpt>
      <trkpt lat="36.880328" lon="-3.714858">
        <ele>1254.7</ele>
        <time>2022-02-20T12:35:47Z</time>
      </trkpt>
      <trkpt lat="36.880141" lon="-3.714923">
        <ele>1253.7</ele>
        <time>2022-02-20T12:36:04Z</time>
      </trkpt>
      <trkpt lat="36.879947" lon="-3.714969">
        <ele>1253.7</ele>
        <time>2022-02-20T12:36:21Z</time>
      </trkpt>
      <trkpt lat="36.879763" lon="-3.714978">
        <ele>1253.7</ele>
        <time>2022-02-20T12:36:36Z</time>
      </trkpt>
      <trkpt lat="36.879564" lon="-3.714994">
        <ele>1256.1</ele>
        <time>2022-02-20T12:36:51Z</time>
      </trkpt>
      <trkpt lat="36.879358" lon="-3.715013">
        <ele>1256.6</ele>
        <time>2022-02-20T12:37:07Z</time>
      </trkpt>
      <trkpt lat="36.879174" lon="-3.714995">
        <ele>1258.0</ele>
        <time>2022-02-20T12:37:26Z</time>
      </trkpt>
      <trkpt lat="36.878933" lon="-3.715112">
        <ele>1258.0</ele>
        <time>2022-02-20T12:37:48Z</time>
      </trkpt>
      <trkpt lat="36.878758" lon="-3.715252">
        <ele>1259.0</ele>
        <time>2022-02-20T12:38:04Z</time>
      </trkpt>
      <trkpt lat="36.878556" lon="-3.715370">
        <ele>1260.4</ele>
        <time>2022-02-20T12:38:21Z</time>
      </trkpt>
      <trkpt lat="36.878391" lon="-3.715505">
        <ele>1259.0</ele>
        <time>2022-02-20T12:38:38Z</time>
      </trkpt>
      <trkpt lat="36.878210" lon="-3.715686">
        <ele>1259.5</ele>
        <time>2022-02-20T12:39:14Z</time>
      </trkpt>
      <trkpt lat="36.878016" lon="-3.715803">
        <ele>1260.4</ele>
        <time>2022-02-20T12:39:33Z</time>
      </trkpt>
      <trkpt lat="36.877830" lon="-3.715873">
        <ele>1261.9</ele>
        <time>2022-02-20T12:39:50Z</time>
      </trkpt>
      <trkpt lat="36.877613" lon="-3.715932">
        <ele>1261.9</ele>
        <time>2022-02-20T12:40:07Z</time>
      </trkpt>
      <trkpt lat="36.877402" lon="-3.716060">
        <ele>1261.9</ele>
        <time>2022-02-20T12:40:23Z</time>
      </trkpt>
      <trkpt lat="36.877207" lon="-3.716132">
        <ele>1262.8</ele>
        <time>2022-02-20T12:40:39Z</time>
      </trkpt>
      <trkpt lat="36.877009" lon="-3.716136">
        <ele>1263.3</ele>
        <time>2022-02-20T12:40:58Z</time>
      </trkpt>
      <trkpt lat="36.876792" lon="-3.716197">
        <ele>1263.3</ele>
        <time>2022-02-20T12:41:14Z</time>
      </trkpt>
      <trkpt lat="36.876580" lon="-3.716287">
        <ele>1263.3</ele>
        <time>2022-02-20T12:41:29Z</time>
      </trkpt>
      <trkpt lat="36.876416" lon="-3.716390">
        <ele>1264.3</ele>
        <time>2022-02-20T12:41:44Z</time>
      </trkpt>
      <trkpt lat="36.876211" lon="-3.716469">
        <ele>1264.8</ele>
        <time>2022-02-20T12:42:00Z</time>
      </trkpt>
      <trkpt lat="36.876002" lon="-3.716553">
        <ele>1264.8</ele>
        <time>2022-02-20T12:42:18Z</time>
      </trkpt>
      <trkpt lat="36.875805" lon="-3.716648">
        <ele>1265.2</ele>
        <time>2022-02-20T12:42:34Z</time>
      </trkpt>
      <trkpt lat="36.875622" lon="-3.716766">
        <ele>1265.7</ele>
        <time>2022-02-20T12:42:50Z</time>
      </trkpt>
      <trkpt lat="36.875449" lon="-3.716906">
        <ele>1265.7</ele>
        <time>2022-02-20T12:43:07Z</time>
      </trkpt>
      <trkpt lat="36.875360" lon="-3.717073">
        <ele>1267.6</ele>
        <time>2022-02-20T12:43:31Z</time>
      </trkpt>
      <trkpt lat="36.875433" lon="-3.717294">
        <ele>1271.5</ele>
        <time>2022-02-20T12:43:50Z</time>
      </trkpt>
      <trkpt lat="36.875582" lon="-3.717443">
        <ele>1271.5</ele>
        <time>2022-02-20T12:44:19Z</time>
      </trkpt>
      <trkpt lat="36.875707" lon="-3.717615">
        <ele>1272.9</ele>
        <time>2022-02-20T12:44:36Z</time>
      </trkpt>
      <trkpt lat="36.875767" lon="-3.717844">
        <ele>1273.4</ele>
        <time>2022-02-20T12:44:53Z</time>
      </trkpt>
      <trkpt lat="36.875847" lon="-3.718043">
        <ele>1275.3</ele>
        <time>2022-02-20T12:45:10Z</time>
      </trkpt>
      <trkpt lat="36.876025" lon="-3.717979">
        <ele>1275.8</ele>
        <time>2022-02-20T12:45:30Z</time>
      </trkpt>
      <trkpt lat="36.876056" lon="-3.717736">
        <ele>1275.8</ele>
        <time>2022-02-20T12:45:47Z</time>
      </trkpt>
      <trkpt lat="36.876117" lon="-3.717483">
        <ele>1276.8</ele>
        <time>2022-02-20T12:46:04Z</time>
      </trkpt>
      <trkpt lat="36.876214" lon="-3.717290">
        <ele>1278.2</ele>
        <time>2022-02-20T12:46:20Z</time>
      </trkpt>
      <trkpt lat="36.876362" lon="-3.717112">
        <ele>1279.7</ele>
        <time>2022-02-20T12:46:36Z</time>
      </trkpt>
      <trkpt lat="36.876521" lon="-3.717014">
        <ele>1281.6</ele>
        <time>2022-02-20T12:46:50Z</time>
      </trkpt>
      <trkpt lat="36.876694" lon="-3.716941">
        <ele>1282.5</ele>
        <time>2022-02-20T12:47:05Z</time>
      </trkpt>
      <trkpt lat="36.876921" lon="-3.716872">
        <ele>1283.0</ele>
        <time>2022-02-20T12:47:20Z</time>
      </trkpt>
      <trkpt lat="36.877078" lon="-3.716831">
        <ele>1282.5</ele>
        <time>2022-02-20T12:47:33Z</time>
      </trkpt>
      <trkpt lat="36.877265" lon="-3.716829">
        <ele>1284.5</ele>
        <time>2022-02-20T12:47:48Z</time>
      </trkpt>
      <trkpt lat="36.877462" lon="-3.716823">
        <ele>1285.4</ele>
        <time>2022-02-20T12:48:04Z</time>
      </trkpt>
      <trkpt lat="36.877648" lon="-3.716831">
        <ele>1286.9</ele>
        <time>2022-02-20T12:48:19Z</time>
      </trkpt>
      <trkpt lat="36.877826" lon="-3.716920">
        <ele>1287.8</ele>
        <time>2022-02-20T12:48:35Z</time>
      </trkpt>
      <trkpt lat="36.877900" lon="-3.717131">
        <ele>1289.7</ele>
        <time>2022-02-20T12:48:51Z</time>
      </trkpt>
      <trkpt lat="36.877893" lon="-3.717389">
        <ele>1290.2</ele>
        <time>2022-02-20T12:49:07Z</time>
      </trkpt>
      <trkpt lat="36.877883" lon="-3.717633">
        <ele>1291.7</ele>
        <time>2022-02-20T12:49:23Z</time>
      </trkpt>
      <trkpt lat="36.877859" lon="-3.717880">
        <ele>1293.1</ele>
        <time>2022-02-20T12:49:38Z</time>
      </trkpt>
      <trkpt lat="36.877828" lon="-3.718117">
        <ele>1293.1</ele>
        <time>2022-02-20T12:49:53Z</time>
      </trkpt>
      <trkpt lat="36.877763" lon="-3.718328">
        <ele>1294.6</ele>
        <time>2022-02-20T12:50:08Z</time>
      </trkpt>
      <trkpt lat="36.877627" lon="-3.718504">
        <ele>1294.6</ele>
        <time>2022-02-20T12:50:23Z</time>
      </trkpt>
      <trkpt lat="36.877497" lon="-3.718702">
        <ele>1297.0</ele>
        <time>2022-02-20T12:50:38Z</time>
      </trkpt>
      <trkpt lat="36.877417" lon="-3.718911">
        <ele>1297.9</ele>
        <time>2022-02-20T12:50:53Z</time>
      </trkpt>
      <trkpt lat="36.877307" lon="-3.719109">
        <ele>1297.9</ele>
        <time>2022-02-20T12:51:08Z</time>
      </trkpt>
      <trkpt lat="36.877256" lon="-3.719330">
        <ele>1299.4</ele>
        <time>2022-02-20T12:51:23Z</time>
      </trkpt>
      <trkpt lat="36.877326" lon="-3.719558">
        <ele>1300.8</ele>
        <time>2022-02-20T12:51:37Z</time>
      </trkpt>
      <trkpt lat="36.877481" lon="-3.719696">
        <ele>1300.3</ele>
        <time>2022-02-20T12:51:51Z</time>
      </trkpt>
      <trkpt lat="36.877664" lon="-3.719779">
        <ele>1301.3</ele>
        <time>2022-02-20T12:52:05Z</time>
      </trkpt>
      <trkpt lat="36.877820" lon="-3.719899">
        <ele>1300.8</ele>
        <time>2022-02-20T12:52:19Z</time>
      </trkpt>
      <trkpt lat="36.878004" lon="-3.719923">
        <ele>1299.4</ele>
        <time>2022-02-20T12:52:33Z</time>
      </trkpt>
      <trkpt lat="36.878177" lon="-3.719819">
        <ele>1300.3</ele>
        <time>2022-02-20T12:52:47Z</time>
      </trkpt>
      <trkpt lat="36.878351" lon="-3.719762">
        <ele>1301.8</ele>
        <time>2022-02-20T12:53:01Z</time>
      </trkpt>
      <trkpt lat="36.878542" lon="-3.719747">
        <ele>1301.8</ele>
        <time>2022-02-20T12:53:16Z</time>
      </trkpt>
      <trkpt lat="36.878724" lon="-3.719771">
        <ele>1304.6</ele>
        <time>2022-02-20T12:53:32Z</time>
      </trkpt>
      <trkpt lat="36.878890" lon="-3.719881">
        <ele>1305.1</ele>
        <time>2022-02-20T12:53:48Z</time>
      </trkpt>
      <trkpt lat="36.879046" lon="-3.720027">
        <ele>1306.6</ele>
        <time>2022-02-20T12:54:04Z</time>
      </trkpt>
      <trkpt lat="36.879240" lon="-3.720080">
        <ele>1307.0</ele>
        <time>2022-02-20T12:54:20Z</time>
      </trkpt>
      <trkpt lat="36.879423" lon="-3.720031">
        <ele>1309.9</ele>
        <time>2022-02-20T12:54:35Z</time>
      </trkpt>
      <trkpt lat="36.879602" lon="-3.719933">
        <ele>1311.9</ele>
        <time>2022-02-20T12:54:50Z</time>
      </trkpt>
      <trkpt lat="36.879775" lon="-3.719857">
        <ele>1313.3</ele>
        <time>2022-02-20T12:55:05Z</time>
      </trkpt>
      <trkpt lat="36.879972" lon="-3.719854">
        <ele>1313.8</ele>
        <time>2022-02-20T12:55:21Z</time>
      </trkpt>
      <trkpt lat="36.880133" lon="-3.719982">
        <ele>1315.7</ele>
        <time>2022-02-20T12:55:36Z</time>
      </trkpt>
      <trkpt lat="36.880251" lon="-3.720170">
        <ele>1317.1</ele>
        <time>2022-02-20T12:55:51Z</time>
      </trkpt>
      <trkpt lat="36.880343" lon="-3.720378">
        <ele>1318.1</ele>
        <time>2022-02-20T12:56:06Z</time>
      </trkpt>
      <trkpt lat="36.880377" lon="-3.720616">
        <ele>1319.1</ele>
        <time>2022-02-20T12:56:21Z</time>
      </trkpt>
      <trkpt lat="36.880427" lon="-3.720838">
        <ele>1321.0</ele>
        <time>2022-02-20T12:56:35Z</time>
      </trkpt>
      <trkpt lat="36.880487" lon="-3.721065">
        <ele>1321.9</ele>
        <time>2022-02-20T12:56:50Z</time>
      </trkpt>
      <trkpt lat="36.880661" lon="-3.721164">
        <ele>1322.9</ele>
        <time>2022-02-20T12:57:05Z</time>
      </trkpt>
      <trkpt lat="36.880869" lon="-3.721213">
        <ele>1324.4</ele>
        <time>2022-02-20T12:57:21Z</time>
      </trkpt>
      <trkpt lat="36.880991" lon="-3.721396">
        <ele>1326.3</ele>
        <time>2022-02-20T12:57:36Z</time>
      </trkpt>
      <trkpt lat="36.881103" lon="-3.721594">
        <ele>1326.8</ele>
        <time>2022-02-20T12:57:51Z</time>
      </trkpt>
      <trkpt lat="36.881212" lon="-3.721795">
        <ele>1329.2</ele>
        <time>2022-02-20T12:58:07Z</time>
      </trkpt>
      <trkpt lat="36.881308" lon="-3.721996">
        <ele>1329.6</ele>
        <time>2022-02-20T12:58:22Z</time>
      </trkpt>
      <trkpt lat="36.881399" lon="-3.722208">
        <ele>1331.1</ele>
        <time>2022-02-20T12:58:38Z</time>
      </trkpt>
      <trkpt lat="36.881385" lon="-3.722421">
        <ele>1332.0</ele>
        <time>2022-02-20T12:58:58Z</time>
      </trkpt>
      <trkpt lat="36.881221" lon="-3.722490">
        <ele>1332.0</ele>
        <time>2022-02-20T12:59:41Z</time>
      </trkpt>
      <trkpt lat="36.881073" lon="-3.722556">
        <ele>1332.5</ele>
        <time>2022-02-20T13:00:14Z</time>
      </trkpt>
      <trkpt lat="36.881000" lon="-3.722441">
        <ele>1333.0</ele>
        <time>2022-02-20T13:01:43Z</time>
      </trkpt>
      <trkpt lat="36.881195" lon="-3.722393">
        <ele>1330.6</ele>
        <time>2022-02-20T13:02:24Z</time>
      </trkpt>
      <trkpt lat="36.881370" lon="-3.722357">
        <ele>1331.1</ele>
        <time>2022-02-20T13:02:52Z</time>
      </trkpt>
      <trkpt lat="36.881333" lon="-3.722410">
        <ele>1331.6</ele>
        <time>2022-02-20T13:04:29Z</time>
      </trkpt>
    </trkseg>
  </trk>
</gpx>
